createdAt,value
2017-10-13T00:01:27.619Z,12.33
2017-10-13T00:03:53.382Z,12.25
2017-10-13T00:06:19.135Z,12.25
2017-10-13T00:08:45.001Z,12.24
2017-10-13T00:11:10.771Z,12.25
2017-10-13T00:13:36.635Z,12.20
2017-10-13T00:16:02.406Z,12.11
2017-10-13T00:18:28.175Z,11.89
2017-10-13T00:20:54.000Z,11.89
2017-10-13T00:23:19.759Z,11.89
2017-10-13T00:25:45.539Z,11.82
2017-10-13T00:28:11.308Z,11.79
2017-10-13T00:30:37.087Z,11.82
2017-10-13T00:33:02.855Z,11.78
2017-10-13T00:35:28.635Z,11.73
2017-10-13T00:37:54.484Z,11.70
2017-10-13T00:40:20.277Z,11.62
2017-10-13T00:42:46.047Z,11.63
2017-10-13T00:45:11.808Z,11.67
2017-10-13T00:47:37.671Z,11.72
2017-10-13T00:50:03.492Z,11.68
2017-10-13T00:52:29.251Z,11.69
2017-10-13T00:54:55.056Z,11.67
2017-10-13T00:57:20.860Z,11.64
2017-10-13T00:59:46.689Z,11.60
2017-10-13T01:02:12.487Z,11.52
2017-10-13T01:04:38.239Z,11.56
2017-10-13T01:07:04.001Z,11.57
2017-10-13T01:09:29.834Z,11.49
2017-10-13T01:11:55.631Z,11.54
2017-10-13T01:14:21.392Z,11.57
2017-10-13T01:16:47.225Z,11.60
2017-10-13T01:19:13.028Z,11.58
2017-10-13T01:21:38.797Z,11.62
2017-10-13T01:24:04.643Z,11.66
2017-10-13T01:26:30.432Z,11.74
2017-10-13T01:28:56.219Z,11.76
2017-10-13T01:31:22.000Z,11.73
2017-10-13T01:33:47.798Z,11.75
2017-10-13T01:36:13.564Z,11.81
2017-10-13T01:38:39.336Z,11.76
2017-10-13T01:41:05.094Z,11.74
2017-10-13T01:43:30.966Z,11.79
2017-10-13T01:45:56.743Z,11.82
2017-10-13T01:48:22.511Z,11.84
2017-10-13T01:50:48.312Z,11.85
2017-10-13T01:53:14.073Z,11.86
2017-10-13T01:55:39.835Z,11.83
2017-10-13T01:58:05.675Z,11.85
2017-10-13T02:00:31.443Z,11.89
2017-10-13T02:02:57.190Z,11.92
2017-10-13T02:05:23.082Z,11.86
2017-10-13T02:07:48.843Z,11.85
2017-10-13T02:10:14.603Z,11.96
2017-10-13T02:12:40.390Z,11.97
2017-10-13T02:15:06.166Z,11.95
2017-10-13T02:17:31.930Z,11.96
2017-10-13T02:19:57.712Z,11.88
2017-10-13T02:22:23.506Z,11.82
2017-10-13T02:24:49.332Z,11.88
2017-10-13T02:27:15.096Z,11.86
2017-10-13T02:29:40.908Z,11.83
2017-10-13T02:32:06.671Z,11.79
2017-10-13T02:34:32.455Z,11.76
2017-10-13T02:36:58.265Z,11.70
2017-10-13T02:39:24.035Z,11.71
2017-10-13T02:41:49.807Z,11.71
2017-10-13T02:44:15.591Z,11.70
2017-10-13T02:46:41.359Z,11.68
2017-10-13T02:49:07.118Z,11.70
2017-10-13T02:51:32.908Z,11.51
2017-10-13T02:53:58.674Z,11.40
2017-10-13T02:56:24.431Z,11.40
2017-10-13T02:58:50.299Z,11.49
2017-10-13T03:01:16.039Z,11.50
2017-10-13T03:03:41.787Z,11.38
2017-10-13T03:06:07.664Z,11.42
2017-10-13T03:08:33.451Z,11.41
2017-10-13T03:10:59.299Z,11.44
2017-10-13T03:13:25.046Z,11.45
2017-10-13T03:15:50.818Z,11.37
2017-10-13T03:18:16.551Z,11.33
2017-10-13T03:20:42.344Z,11.37
2017-10-13T03:23:08.104Z,11.39
2017-10-13T03:25:33.939Z,11.28
2017-10-13T03:27:59.701Z,11.21
2017-10-13T03:30:25.471Z,11.18
2017-10-13T03:32:51.208Z,11.15
2017-10-13T03:35:17.039Z,11.13
2017-10-13T03:37:42.807Z,11.13
2017-10-13T03:40:08.570Z,11.14
2017-10-13T03:42:34.372Z,11.12
2017-10-13T03:45:00.149Z,11.13
2017-10-13T03:47:25.907Z,11.09
2017-10-13T03:49:51.723Z,11.01
2017-10-13T03:52:17.539Z,11.05
2017-10-13T03:54:43.339Z,11.11
2017-10-13T03:57:09.094Z,11.11
2017-10-13T03:59:34.919Z,11.07
2017-10-13T04:19:10.555Z,11.35
2017-10-13T04:21:36.308Z,11.36
2017-10-13T04:24:26.199Z,11.40
2017-10-13T04:27:23.275Z,11.45
2017-10-13T04:30:20.627Z,11.48
2017-10-13T04:43:05.574Z,11.41
2017-10-13T04:45:55.467Z,11.33
2017-10-13T05:05:09.643Z,11.44
2017-10-13T05:07:58.639Z,11.47
2017-10-13T05:10:55.743Z,11.53
2017-10-13T05:13:52.895Z,11.49
2017-10-13T05:16:50.303Z,11.45
2017-10-13T05:26:40.263Z,11.00
2017-10-13T05:29:29.036Z,11.00
2017-10-13T05:48:41.541Z,10.99
2017-10-13T06:08:18.539Z,11.07
2017-10-13T06:27:29.504Z,11.31
2017-10-13T06:30:26.304Z,11.50
2017-10-13T06:32:52.075Z,11.47
2017-10-13T06:35:41.932Z,11.61
2017-10-13T06:38:38.871Z,11.74
2017-10-13T06:57:48.819Z,14.63
2017-10-13T07:00:46.857Z,14.89
2017-10-13T07:03:43.988Z,14.98
2017-10-13T07:06:41.139Z,15.18
2017-10-13T07:09:38.568Z,15.18
2017-10-13T07:18:46.675Z,15.81
2017-10-13T07:38:23.501Z,19.61
2017-10-13T07:40:49.299Z,20.20
2017-10-13T07:43:39.114Z,21.07
2017-10-13T07:46:36.137Z,21.19
2017-10-13T07:49:32.886Z,22.53
2017-10-13T07:52:29.802Z,23.65
2017-10-13T07:55:26.671Z,23.83
2017-10-13T07:58:23.346Z,23.99
2017-10-13T08:01:21.202Z,24.14
2017-10-13T08:03:46.948Z,24.28
2017-10-13T08:06:36.746Z,24.43
2017-10-13T08:09:33.870Z,24.58
2017-10-13T08:25:23.762Z,27.82
2017-10-13T08:44:58.506Z,26.58
2017-10-13T09:04:04.462Z,27.07
2017-10-13T09:23:19.191Z,25.90
2017-10-13T09:26:16.923Z,26.06
2017-10-13T09:29:13.677Z,25.46
2017-10-13T09:31:46.744Z,25.59
2017-10-13T09:34:36.515Z,25.50
2017-10-13T09:53:47.354Z,25.90
2017-10-13T09:56:36.442Z,25.74
2017-10-13T09:59:34.069Z,25.97
2017-10-13T10:02:30.884Z,26.49
2017-10-13T10:15:16.840Z,25.85
2017-10-13T10:18:06.653Z,26.58
2017-10-13T10:21:04.087Z,27.17
2017-10-13T10:36:53.103Z,25.41
2017-10-13T10:56:28.339Z,22.78
2017-10-13T10:58:54.135Z,24.07
2017-10-13T11:01:43.919Z,24.34
2017-10-13T11:04:41.023Z,23.98
2017-10-13T11:07:37.904Z,25.45
2017-10-13T11:20:21.840Z,25.09
2017-10-13T11:23:11.279Z,24.76
2017-10-13T11:26:08.211Z,24.54
2017-10-13T11:29:05.232Z,24.40
2017-10-13T11:32:02.264Z,24.05
2017-10-13T11:34:59.130Z,23.52
2017-10-13T11:37:55.883Z,23.81
2017-10-13T11:57:05.629Z,28.45
2017-10-13T12:00:02.487Z,27.78
2017-10-13T12:02:59.370Z,27.76
2017-10-13T12:05:38.614Z,27.26
2017-10-13T12:08:28.426Z,26.70
2017-10-13T12:27:38.998Z,25.09
2017-10-13T12:47:13.094Z,25.36
2017-10-13T12:49:38.836Z,25.23
2017-10-13T12:52:28.313Z,25.28
2017-10-13T12:55:25.003Z,25.37
2017-10-13T12:58:22.722Z,24.69
2017-10-13T13:01:19.739Z,25.00
2017-10-13T13:04:16.549Z,25.57
2017-10-13T13:13:23.843Z,26.27
2017-10-13T13:32:58.531Z,27.13
2017-10-13T13:35:24.288Z,26.91
2017-10-13T13:54:58.955Z,27.69
2017-10-13T13:57:24.714Z,27.83
2017-10-13T14:00:13.541Z,27.83
2017-10-13T14:03:10.483Z,28.01
2017-10-13T14:06:07.297Z,28.31
2017-10-13T14:09:04.047Z,28.28
2017-10-13T14:18:53.442Z,27.87
2017-10-13T14:21:43.147Z,28.04
2017-10-13T14:24:40.764Z,28.27
2017-10-13T14:27:37.943Z,28.32
2017-10-13T14:30:34.991Z,28.37
2017-10-13T14:33:31.951Z,28.02
2017-10-13T14:36:28.819Z,27.94
2017-10-13T14:39:26.675Z,28.05
2017-10-13T14:41:52.462Z,27.97
2017-10-13T14:44:42.032Z,27.90
2017-10-13T14:47:39.683Z,28.24
2017-10-13T14:50:36.459Z,28.10
2017-10-13T15:03:22.214Z,28.13
2017-10-13T15:06:11.977Z,28.18
2017-10-13T15:25:28.887Z,28.04
2017-10-13T15:28:23.944Z,28.02
2017-10-13T15:47:42.134Z,27.21
2017-10-13T15:50:37.491Z,27.21
2017-10-13T16:09:47.143Z,25.83
2017-10-13T16:12:36.853Z,25.63
2017-10-13T16:15:33.687Z,25.34
2017-10-13T16:18:30.741Z,25.21
2017-10-13T16:21:28.264Z,24.91
2017-10-13T16:24:25.079Z,24.68
2017-10-13T16:27:21.964Z,24.25
2017-10-13T16:30:18.856Z,23.95
2017-10-13T16:32:44.627Z,23.39
2017-10-13T16:35:33.967Z,22.99
2017-10-13T16:38:31.728Z,22.49
2017-10-13T16:41:29.051Z,21.86
2017-10-13T16:54:25.504Z,20.24
2017-10-13T16:57:14.231Z,19.98
2017-10-13T17:16:25.285Z,18.86
2017-10-13T17:36:00.096Z,18.10
2017-10-13T17:38:25.884Z,17.84
2017-10-13T17:57:59.511Z,17.11
2017-10-13T18:00:25.267Z,17.14
2017-10-13T18:03:14.506Z,17.13
2017-10-13T18:06:11.660Z,17.04
2017-10-13T18:22:01.091Z,16.72
2017-10-13T18:24:49.965Z,16.70
2017-10-13T18:27:46.976Z,16.62
2017-10-13T18:30:44.696Z,16.46
2017-10-13T18:33:42.673Z,16.38
2017-10-13T18:43:31.417Z,16.14
2017-10-13T19:03:05.555Z,15.64
2017-10-13T19:05:31.343Z,15.55
2017-10-13T19:08:21.104Z,15.57
2017-10-13T19:27:31.824Z,15.43
2017-10-13T19:30:20.691Z,15.37
2017-10-13T19:49:31.494Z,14.76
2017-10-13T19:52:20.563Z,14.80
2017-10-13T19:55:17.596Z,14.78
2017-10-13T19:58:15.399Z,14.72
2017-10-13T20:17:30.799Z,14.59
2017-10-13T20:20:28.050Z,14.54
2017-10-13T20:23:24.982Z,14.50
2017-10-13T20:26:21.952Z,14.45
2017-10-13T20:29:19.314Z,14.23
2017-10-13T20:32:16.122Z,14.21
2017-10-13T20:34:41.917Z,14.22
2017-10-13T20:37:31.435Z,14.24
2017-10-13T20:40:28.127Z,14.21
2017-10-13T20:56:17.899Z,14.05
2017-10-13T21:15:54.299Z,13.81
2017-10-13T21:18:20.100Z,13.71
2017-10-13T21:21:09.600Z,13.75
2017-10-13T21:40:21.352Z,13.38
2017-10-13T21:43:10.963Z,13.34
2017-10-13T21:46:09.058Z,13.36
2017-10-13T21:49:06.414Z,13.34
2017-10-13T22:01:52.378Z,13.27
2017-10-13T22:04:41.103Z,13.28
2017-10-13T22:07:38.115Z,13.26
2017-10-13T22:10:35.146Z,13.26
2017-10-13T22:13:32.234Z,13.30
2017-10-13T22:23:22.066Z,13.04
2017-10-13T22:26:12.083Z,13.06
2017-10-13T22:29:08.834Z,13.05
2017-10-13T22:32:05.836Z,12.89
2017-10-13T22:44:53.556Z,12.96
2017-10-13T22:47:43.603Z,12.98
2017-10-13T23:06:54.683Z,12.34
2017-10-13T23:09:44.449Z,12.40
2017-10-13T23:12:41.151Z,12.47
2017-10-13T23:15:38.000Z,12.49
2017-10-13T23:18:35.531Z,12.44
2017-10-13T23:28:26.245Z,12.32
2017-10-13T23:50:51.735Z,12.05
2017-10-13T23:53:40.484Z,12.14
